Regal Star — ESCM — position and weather

sailwx.info

Track history (hours):
 
Tides and Currents Weather Stations Pressure Air Temp Water Temp Dewpoint Dewpoint Depression Visibility Wind Speed Wind Dir Waves Ship Positions

Regal Star

Last reported at 2017-Jan-21 02:16 UTC. Time now 2017-Jan-21 19:39 UTC.
Position N 59°27' E 022°02'.

Length 157 m; draft 6.4 m.

Type: Ship (hazmat cat B). MMSI: 276554000.

Date/timePositionNaut miles runAvg speedWind from/ knotsBaromVisibWave heightAir tempDewpointWater temp
2017-Jan-21 02:16N 59°27' E 022°02'1216.3
2017-Jan-21 01:33N 59°30' E 021°41'2016.5
2017-Jan-21 00:21N 59°36' E 021°03'4415.6
2017-Jan-20 21:33N 59°45' E 019°38'1414.0
2017-Jan-20 20:33N 59°44' E 019°11'4 3.6
2017-Jan-20 19:33N 59°43' E 019°04'0 0.0
2017-Jan-20 18:33N 59°43' E 019°04'0 0.0
2017-Jan-20 17:33N 59°43' E 019°04'0 0.0
2017-Jan-20 16:33N 59°43' E 019°04'0 0.0
2017-Jan-20 15:33N 59°43' E 019°04'0 0.0
2017-Jan-20 14:30N 59°43' E 019°04'0 0.0
2017-Jan-20 12:30N 59°43' E 019°04'0 0.0
2017-Jan-20 11:33N 59°43' E 019°04'0 0.0
2017-Jan-20 10:33N 59°43' E 019°04'0 0.0
2017-Jan-20 09:33N 59°43' E 019°04'0 0.0
2017-Jan-20 08:33N 59°43' E 019°04'0 0.0
2017-Jan-20 07:33N 59°43' E 019°04'0 0.0
2017-Jan-20 06:33N 59°43' E 019°04'0 0.0
2017-Jan-20 05:33N 59°43' E 019°04'9 8.7
2017-Jan-20 04:33N 59°46' E 019°20'1313.3
2017-Jan-20 03:33N 59°48' E 019°47'4414.7
2017-Jan-20 00:33N 59°38' E 021°12'1615.6
2017-Jan-19 23:33N 59°35' E 021°42'1615.6
2017-Jan-19 22:33N 59°33' E 022°13'3115.5
2017-Jan-19 20:32N 59°30' E 023°14'7 0.4
2017-Jan-19 04:15N 59°23' E 023°13'4715.3
2017-Jan-19 01:11N 59°30' E 021°42'1015.7
2017-Jan-19 00:33N 59°33' E 021°23'5315.8
2017-Jan-18 21:10N 59°45' E 019°40'1015.9
2017-Jan-18 20:33N 59°46' E 019°21'9 8.6
2017-Jan-18 19:33N 59°43' E 019°04'0 0.0
2017-Jan-18 18:33N 59°43' E 019°04'0 0.0
2017-Jan-18 17:33N 59°43' E 019°04'0 0.0
2017-Jan-18 16:33N 59°43' E 019°04'0 0.0
2017-Jan-18 15:33N 59°43' E 019°04'0 0.0
2017-Jan-18 14:24N 59°43' E 019°04'0 0.0
2017-Jan-18 12:27N 59°43' E 019°04'0 0.0
2017-Jan-18 11:33N 59°43' E 019°04'0 0.0
2017-Jan-18 10:30N 59°43' E 019°04'0 0.0
2017-Jan-18 09:33N 59°43' E 019°04'0 0.0
2017-Jan-18 08:30N 59°43' E 019°04'0 0.0
2017-Jan-18 07:33N 59°43' E 019°04'0 0.0
2017-Jan-18 06:33N 59°43' E 019°04'0 0.1
2017-Jan-18 05:34N 59°43' E 019°04'1414.3
2017-Jan-18 04:33N 59°46' E 019°32'5415.8
2017-Jan-18 01:10N 59°29' E 021°13'1415.5
2017-Jan-18 00:15N 59°26' E 021°41'62 3.3
2017-Jan-17 05:32N 59°23' E 023°42'1514.7
2017-Jan-17 04:29N 59°23' E 023°12'3913.3
2017-Jan-17 01:33N 59°28' E 021°56'1615.9
2017-Jan-17 00:33N 59°32' E 021°26'1615.8
2017-Jan-16 23:33N 59°37' E 020°56'4615.4
2017-Jan-16 20:33N 59°46' E 019°27'1211.6
2017-Jan-16 19:33N 59°43' E 019°04'0 0.0
2017-Jan-16 18:33N 59°43' E 019°04'0 0.0
2017-Jan-16 17:33N 59°43' E 019°04'0 0.0
2017-Jan-16 16:33N 59°43' E 019°04'0 0.0
2017-Jan-16 15:33N 59°43' E 019°04'0 0.0
2017-Jan-16 14:30N 59°43' E 019°04'0 0.0
2017-Jan-16 13:33N 59°43' E 019°04'0 0.0
2017-Jan-16 12:33N 59°43' E 019°04'0 0.0
2017-Jan-16 11:33N 59°43' E 019°04'0 0.0
2017-Jan-16 10:33N 59°43' E 019°04'0 0.0
2017-Jan-16 09:33N 59°43' E 019°04'0 0.0
2017-Jan-16 08:33N 59°43' E 019°04'0 0.0
2017-Jan-16 07:33N 59°43' E 019°04'0 0.0
2017-Jan-16 06:33N 59°43' E 019°04'0 0.0
2017-Jan-16 05:33N 59°43' E 019°04'8 8.5
2017-Jan-16 04:33N 59°46' E 019°20'1514.6
2017-Jan-16 03:33N 59°43' E 019°49'4515.0
2017-Jan-16 00:33N 59°29' E 021°13'1515.5
2017-Jan-15 23:33N 59°25' E 021°43'62 7.5
2017-Jan-15 15:20N 59°23' E 023°45'1416.9
2017-Jan-15 14:29N 59°23' E 023°16'4916.6
2017-Jan-15 11:34N 59°30' E 021°42'1716.9
2017-Jan-15 10:33N 59°35' E 021°10'4916.5
2017-Jan-15 07:33N 59°45' E 019°34'1514.4
2017-Jan-15 06:30N 59°43' E 019°04'0 0.0
2017-Jan-15 05:33N 59°43' E 019°04'10 9.9
2017-Jan-15 04:34N 59°46' E 019°23'1312.6
2017-Jan-15 03:33N 59°43' E 019°47'4715.0
2017-Jan-15 00:28N 59°29' E 021°14'71 3.7
2017-Jan-14 05:06N 59°23' E 023°33'12315.5
2017-Jan-13 21:11N 59°45' E 019°35'1016.3
2017-Jan-13 20:33N 59°45' E 019°15'6 5.5
2017-Jan-13 19:32N 59°43' E 019°04'0 0.0
2017-Jan-13 18:32N 59°43' E 019°04'0 0.0
2017-Jan-13 17:32N 59°43' E 019°04'0 0.0
2017-Jan-13 16:32N 59°43' E 019°04'0 0.0
2017-Jan-13 15:32N 59°43' E 019°04'0 0.0
2017-Jan-13 12:32N 59°43' E 019°04'0 0.0
2017-Jan-13 11:32N 59°43' E 019°04'0 0.0
2017-Jan-13 10:32N 59°43' E 019°04'0 0.0
2017-Jan-13 09:32N 59°43' E 019°04'0 0.0
2017-Jan-13 08:32N 59°43' E 019°04'0 0.0
2017-Jan-13 07:32N 59°43' E 019°04'0 0.0
2017-Jan-13 06:32N 59°43' E 019°04'0 0.0
2017-Jan-13 05:33N 59°43' E 019°04'9 9.5
2017-Jan-13 04:33N 59°46' E 019°22'1514.6
2017-Jan-13 03:33N 59°43' E 019°50'113 5.7
2017-Jan-12 07:32N 59°23' E 023°30'6612.4
2017-Jan-12 02:12N 59°30' E 021°20'5310.9
2017-Jan-11 21:20N 59°45' E 019°40'1013.4
2017-Jan-11 20:33N 59°45' E 019°20'8 8.1
2017-Jan-11 19:33N 59°43' E 019°04'0 0.0
2017-Jan-11 18:30N 59°43' E 019°04'0 0.0
2017-Jan-11 17:33N 59°43' E 019°04'0 0.0
2017-Jan-11 16:33N 59°43' E 019°04'0 0.0
2017-Jan-11 15:33N 59°43' E 019°04'0 0.0
2017-Jan-11 14:33N 59°43' E 019°04'0 0.0
2017-Jan-11 13:33N 59°43' E 019°04'0 0.0
2017-Jan-11 12:33N 59°43' E 019°04'0 0.0
2017-Jan-11 11:33N 59°43' E 019°04'0 0.0
2017-Jan-11 10:33N 59°43' E 019°04'0 0.0
2017-Jan-11 09:33N 59°43' E 019°04'0 0.0
2017-Jan-11 08:33N 59°43' E 019°04'0 0.0
2017-Jan-11 07:33N 59°43' E 019°04'8 8.4
2017-Jan-11 06:33N 59°46' E 019°20'1514.8
2017-Jan-11 05:32N 59°43' E 019°50'  
Track history (hours):
 
Tides and Currents Weather Stations Pressure Air Temp Water Temp Dewpoint Dewpoint Depression Visibility Wind Speed Wind Dir Waves Ship Positions

Regal Star

Last reported at 2017-Jan-21 02:16 UTC. Time now 2017-Jan-21 19:39 UTC.
Position N 59°27' E 022°02'.

Length 157 m; draft 6.4 m.

Type: Ship (hazmat cat B). MMSI: 276554000.

Date/timePositionNaut miles runAvg speedWind from/ knotsBaromVisibWave heightAir tempDewpointWater temp
2017-Jan-21 02:16N 59°27' E 022°02'1216.3
2017-Jan-21 01:33N 59°30' E 021°41'2016.5
2017-Jan-21 00:21N 59°36' E 021°03'4415.6
2017-Jan-20 21:33N 59°45' E 019°38'1414.0
2017-Jan-20 20:33N 59°44' E 019°11'4 3.6
2017-Jan-20 19:33N 59°43' E 019°04'0 0.0
2017-Jan-20 18:33N 59°43' E 019°04'0 0.0
2017-Jan-20 17:33N 59°43' E 019°04'0 0.0
2017-Jan-20 16:33N 59°43' E 019°04'0 0.0
2017-Jan-20 15:33N 59°43' E 019°04'0 0.0
2017-Jan-20 14:30N 59°43' E 019°04'0 0.0
2017-Jan-20 12:30N 59°43' E 019°04'0 0.0
2017-Jan-20 11:33N 59°43' E 019°04'0 0.0
2017-Jan-20 10:33N 59°43' E 019°04'0 0.0
2017-Jan-20 09:33N 59°43' E 019°04'0 0.0
2017-Jan-20 08:33N 59°43' E 019°04'0 0.0
2017-Jan-20 07:33N 59°43' E 019°04'0 0.0
2017-Jan-20 06:33N 59°43' E 019°04'0 0.0
2017-Jan-20 05:33N 59°43' E 019°04'9 8.7
2017-Jan-20 04:33N 59°46' E 019°20'1313.3
2017-Jan-20 03:33N 59°48' E 019°47'4414.7
2017-Jan-20 00:33N 59°38' E 021°12'1615.6
2017-Jan-19 23:33N 59°35' E 021°42'1615.6
2017-Jan-19 22:33N 59°33' E 022°13'3115.5
2017-Jan-19 20:32N 59°30' E 023°14'7 0.4
2017-Jan-19 04:15N 59°23' E 023°13'4715.3
2017-Jan-19 01:11N 59°30' E 021°42'1015.7
2017-Jan-19 00:33N 59°33' E 021°23'5315.8
2017-Jan-18 21:10N 59°45' E 019°40'1015.9
2017-Jan-18 20:33N 59°46' E 019°21'9 8.6
2017-Jan-18 19:33N 59°43' E 019°04'0 0.0
2017-Jan-18 18:33N 59°43' E 019°04'0 0.0
2017-Jan-18 17:33N 59°43' E 019°04'0 0.0
2017-Jan-18 16:33N 59°43' E 019°04'0 0.0
2017-Jan-18 15:33N 59°43' E 019°04'0 0.0
2017-Jan-18 14:24N 59°43' E 019°04'0 0.0
2017-Jan-18 12:27N 59°43' E 019°04'0 0.0
2017-Jan-18 11:33N 59°43' E 019°04'0 0.0
2017-Jan-18 10:30N 59°43' E 019°04'0 0.0
2017-Jan-18 09:33N 59°43' E 019°04'0 0.0
2017-Jan-18 08:30N 59°43' E 019°04'0 0.0
2017-Jan-18 07:33N 59°43' E 019°04'0 0.0
2017-Jan-18 06:33N 59°43' E 019°04'0 0.1
2017-Jan-18 05:34N 59°43' E 019°04'1414.3
2017-Jan-18 04:33N 59°46' E 019°32'5415.8
2017-Jan-18 01:10N 59°29' E 021°13'1415.5
2017-Jan-18 00:15N 59°26' E 021°41'62 3.3
2017-Jan-17 05:32N 59°23' E 023°42'1514.7
2017-Jan-17 04:29N 59°23' E 023°12'3913.3
2017-Jan-17 01:33N 59°28' E 021°56'1615.9
2017-Jan-17 00:33N 59°32' E 021°26'1615.8
2017-Jan-16 23:33N 59°37' E 020°56'4615.4
2017-Jan-16 20:33N 59°46' E 019°27'1211.6
2017-Jan-16 19:33N 59°43' E 019°04'0 0.0
2017-Jan-16 18:33N 59°43' E 019°04'0 0.0
2017-Jan-16 17:33N 59°43' E 019°04'0 0.0
2017-Jan-16 16:33N 59°43' E 019°04'0 0.0
2017-Jan-16 15:33N 59°43' E 019°04'0 0.0
2017-Jan-16 14:30N 59°43' E 019°04'0 0.0
2017-Jan-16 13:33N 59°43' E 019°04'0 0.0
2017-Jan-16 12:33N 59°43' E 019°04'0 0.0
2017-Jan-16 11:33N 59°43' E 019°04'0 0.0
2017-Jan-16 10:33N 59°43' E 019°04'0 0.0
2017-Jan-16 09:33N 59°43' E 019°04'0 0.0
2017-Jan-16 08:33N 59°43' E 019°04'0 0.0
2017-Jan-16 07:33N 59°43' E 019°04'0 0.0
2017-Jan-16 06:33N 59°43' E 019°04'0 0.0
2017-Jan-16 05:33N 59°43' E 019°04'8 8.5
2017-Jan-16 04:33N 59°46' E 019°20'1514.6
2017-Jan-16 03:33N 59°43' E 019°49'4515.0
2017-Jan-16 00:33N 59°29' E 021°13'1515.5
2017-Jan-15 23:33N 59°25' E 021°43'62 7.5
2017-Jan-15 15:20N 59°23' E 023°45'1416.9
2017-Jan-15 14:29N 59°23' E 023°16'4916.6
2017-Jan-15 11:34N 59°30' E 021°42'1716.9
2017-Jan-15 10:33N 59°35' E 021°10'4916.5
2017-Jan-15 07:33N 59°45' E 019°34'1514.4
2017-Jan-15 06:30N 59°43' E 019°04'0 0.0
2017-Jan-15 05:33N 59°43' E 019°04'10 9.9
2017-Jan-15 04:34N 59°46' E 019°23'1312.6
2017-Jan-15 03:33N 59°43' E 019°47'4715.0
2017-Jan-15 00:28N 59°29' E 021°14'71 3.7
2017-Jan-14 05:06N 59°23' E 023°33'12315.5
2017-Jan-13 21:11N 59°45' E 019°35'1016.3
2017-Jan-13 20:33N 59°45' E 019°15'6 5.5
2017-Jan-13 19:32N 59°43' E 019°04'0 0.0
2017-Jan-13 18:32N 59°43' E 019°04'0 0.0
2017-Jan-13 17:32N 59°43' E 019°04'0 0.0
2017-Jan-13 16:32N 59°43' E 019°04'0 0.0
2017-Jan-13 15:32N 59°43' E 019°04'0 0.0
2017-Jan-13 12:32N 59°43' E 019°04'0 0.0
2017-Jan-13 11:32N 59°43' E 019°04'0 0.0
2017-Jan-13 10:32N 59°43' E 019°04'0 0.0
2017-Jan-13 09:32N 59°43' E 019°04'0 0.0
2017-Jan-13 08:32N 59°43' E 019°04'0 0.0
2017-Jan-13 07:32N 59°43' E 019°04'0 0.0
2017-Jan-13 06:32N 59°43' E 019°04'0 0.0
2017-Jan-13 05:33N 59°43' E 019°04'9 9.5
2017-Jan-13 04:33N 59°46' E 019°22'1514.6
2017-Jan-13 03:33N 59°43' E 019°50'113 5.7
2017-Jan-12 07:32N 59°23' E 023°30'6612.4
2017-Jan-12 02:12N 59°30' E 021°20'5310.9
2017-Jan-11 21:20N 59°45' E 019°40'1013.4
2017-Jan-11 20:33N 59°45' E 019°20'8 8.1
2017-Jan-11 19:33N 59°43' E 019°04'0 0.0
2017-Jan-11 18:30N 59°43' E 019°04'0 0.0
2017-Jan-11 17:33N 59°43' E 019°04'0 0.0
2017-Jan-11 16:33N 59°43' E 019°04'0 0.0
2017-Jan-11 15:33N 59°43' E 019°04'0 0.0
2017-Jan-11 14:33N 59°43' E 019°04'0 0.0
2017-Jan-11 13:33N 59°43' E 019°04'0 0.0
2017-Jan-11 12:33N 59°43' E 019°04'0 0.0
2017-Jan-11 11:33N 59°43' E 019°04'0 0.0
2017-Jan-11 10:33N 59°43' E 019°04'0 0.0
2017-Jan-11 09:33N 59°43' E 019°04'0 0.0
2017-Jan-11 08:33N 59°43' E 019°04'0 0.0
2017-Jan-11 07:33N 59°43' E 019°04'8 8.4
2017-Jan-11 06:33N 59°46' E 019°20'1514.8
2017-Jan-11 05:32N 59°43' E 019°50'  

Dump ship's entire track history